Time;durP1;ratioP1;P1;durP2;ratioP2;P2;SDS_P1;SDS_P2;PMS_P1;PMS_P2;Temp;Humidity;BMP_temperature;BMP_pressure;BME280_temperature;BME280_humidity;BME280_pressure;Samples;Min_cycle;Max_cycle;Signal;HPM_P1;HPM_P2
2023/09/05 00:00:10;;;;;;;6.60;2.80;;;18.20;99.90;;;;;;5090889;28;20119;-69
2023/09/05 00:02:39;;;;;;;6.20;2.65;;;18.10;99.90;;;;;;5092015;28;20032;-70
2023/09/05 00:05:07;;;;;;;3.95;2.72;;;18.00;99.90;;;;;;5091642;28;20182;-70
2023/09/05 00:07:35;;;;;;;9.40;2.83;;;17.90;99.90;;;;;;5091789;28;20176;-69
2023/09/05 00:10:11;;;;;;;3.80;1.98;;;17.90;99.90;;;;;;5091780;28;20176;-70
2023/09/05 00:12:40;;;;;;;5.18;2.60;;;17.90;99.90;;;;;;5092260;28;20102;-69
2023/09/05 00:15:07;;;;;;;5.97;2.65;;;18.00;99.90;;;;;;5092085;28;20032;-69
2023/09/05 00:17:34;;;;;;;2.45;1.95;;;18.00;99.90;;;;;;5091708;28;20147;-69
2023/09/05 00:20:00;;;;;;;3.13;2.20;;;17.90;99.90;;;;;;5090509;28;20119;-70
2023/09/05 00:22:25;;;;;;;7.65;3.08;;;17.90;99.90;;;;;;5090948;28;20336;-69
2023/09/05 00:24:51;;;;;;;7.47;2.67;;;17.90;99.90;;;;;;5091351;28;20446;-69
2023/09/05 00:27:17;;;;;;;5.55;2.28;;;17.90;99.90;;;;;;5092230;28;20032;-69
2023/09/05 00:29:42;;;;;;;4.90;2.65;;;17.80;99.90;;;;;;5091618;28;20028;-70
2023/09/05 00:32:09;;;;;;;3.55;2.28;;;17.80;99.90;;;;;;5090761;28;20485;-69
2023/09/05 00:34:36;;;;;;;2.97;2.30;;;17.80;99.90;;;;;;5091474;28;20056;-70
2023/09/05 00:37:06;;;;;;;7.47;2.50;;;17.80;99.90;;;;;;5091443;28;20107;-70
2023/09/05 00:39:33;;;;;;;6.55;2.40;;;17.80;99.90;;;;;;5091705;28;20035;-69
2023/09/05 00:42:00;;;;;;;5.60;2.50;;;17.80;99.90;;;;;;5091444;28;20036;-70
2023/09/05 00:44:27;;;;;;;3.92;2.60;;;17.90;99.90;;;;;;5091250;28;20366;-70
2023/09/05 00:46:54;;;;;;;3.78;2.63;;;17.70;99.90;;;;;;5091144;28;20055;-69
2023/09/05 00:49:23;;;;;;;4.97;2.78;;;17.70;99.90;;;;;;5091060;28;20039;-69
2023/09/05 00:51:52;;;;;;;;;;;17.70;99.90;;;;;;5091387;28;20063;-69
2023/09/05 00:54:18;;;;;;;3.53;2.42;;;17.50;99.90;;;;;;5091678;28;19904;-69
2023/09/05 00:56:45;;;;;;;3.85;2.47;;;17.40;99.90;;;;;;5091390;28;20039;-69
2023/09/05 00:59:12;;;;;;;5.40;3.30;;;17.40;99.90;;;;;;5090924;28;20031;-69
2023/09/05 01:01:56;;;;;;;3.80;2.30;;;17.30;99.90;;;;;;5091101;28;20039;-69
2023/09/05 01:04:23;;;;;;;7.25;3.25;;;17.30;99.90;;;;;;5090924;28;20055;-69
2023/09/05 01:07:11;;;;;;;3.25;2.38;;;17.20;99.90;;;;;;5090750;28;20469;-69
2023/09/05 01:09:56;;;;;;;8.85;2.63;;;17.20;99.90;;;;;;5091402;28;20080;-69
2023/09/05 01:12:22;;;;;;;9.88;3.38;;;17.30;99.90;;;;;;5091101;28;20043;-69
2023/09/05 01:14:48;;;;;;;5.80;2.75;;;17.40;99.90;;;;;;5091037;28;20040;-69
2023/09/05 01:17:14;;;;;;;10.82;2.92;;;17.50;99.90;;;;;;5091110;28;20116;-69
2023/09/05 01:19:41;;;;;;;6.18;3.10;;;17.50;99.90;;;;;;5090883;28;20405;-69
2023/09/05 01:22:15;;;;;;;4.28;2.47;;;17.60;99.90;;;;;;5090542;28;20457;-69
2023/09/05 01:24:41;;;;;;;5.07;2.58;;;17.50;99.90;;;;;;5091162;28;20016;-69
2023/09/05 01:27:09;;;;;;;3.90;2.80;;;17.40;99.90;;;;;;5090620;28;20066;-68
2023/09/05 01:29:36;;;;;;;5.43;3.30;;;17.40;99.90;;;;;;5090681;28;20031;-69
2023/09/05 01:32:03;;;;;;;4.03;2.90;;;17.50;99.90;;;;;;5089763;28;20119;-69
2023/09/05 01:34:30;;;;;;;5.35;2.55;;;17.50;99.90;;;;;;5090686;28;20032;-69
2023/09/05 01:36:55;;;;;;;6.35;2.83;;;17.60;99.90;;;;;;5072652;28;20020;-69
2023/09/05 01:39:21;;;;;;;3.83;2.40;;;17.60;99.90;;;;;;5070772;28;20095;-70
2023/09/05 01:41:48;;;;;;;5.10;2.38;;;17.50;99.90;;;;;;5070384;28;20040;-69
2023/09/05 01:44:14;;;;;;;6.53;2.63;;;17.50;99.90;;;;;;5072901;28;20044;-69
2023/09/05 01:46:39;;;;;;;5.65;2.70;;;17.50;99.90;;;;;;5074232;28;20471;-69
2023/09/05 01:49:05;;;;;;;6.18;2.92;;;17.50;99.90;;;;;;5074457;28;20063;-69
2023/09/05 01:51:31;;;;;;;7.03;2.85;;;17.50;99.90;;;;;;5074913;28;20020;-68
2023/09/05 01:53:57;;;;;;;5.47;3.10;;;17.50;99.90;;;;;;5074163;28;20052;-68
2023/09/05 01:56:22;;;;;;;5.00;2.58;;;17.50;99.90;;;;;;5074245;28;20039;-68
2023/09/05 01:58:48;;;;;;;5.72;3.03;;;17.40;99.90;;;;;;5074002;28;20029;-68
2023/09/05 02:01:13;;;;;;;3.60;2.60;;;17.40;99.90;;;;;;5073958;28;20028;-68
2023/09/05 02:03:39;;;;;;;7.25;2.90;;;17.20;99.90;;;;;;5074406;28;20359;-69
2023/09/05 02:06:05;;;;;;;3.78;2.60;;;17.20;99.90;;;;;;5073679;28;20091;-69
2023/09/05 02:08:33;;;;;;;9.02;3.33;;;17.30;99.90;;;;;;5073913;28;20028;-69
2023/09/05 02:10:59;;;;;;;4.53;2.53;;;17.30;99.90;;;;;;5072834;28;20032;-68
2023/09/05 02:13:24;;;;;;;7.60;3.10;;;17.40;99.90;;;;;;5073763;28;20020;-68
2023/09/05 02:15:50;;;;;;;4.38;2.80;;;17.30;99.90;;;;;;5073738;28;20020;-69
2023/09/05 02:18:15;;;;;;;5.95;3.05;;;17.30;99.90;;;;;;5074027;28;20487;-69
2023/09/05 02:20:41;;;;;;;6.18;3.00;;;17.20;99.90;;;;;;5073723;28;20035;-69
2023/09/05 02:23:07;;;;;;;5.50;3.00;;;17.20;99.90;;;;;;5073542;28;20035;-69
2023/09/05 02:25:33;;;;;;;5.20;2.60;;;17.00;99.90;;;;;;5073516;28;20040;-69
2023/09/05 02:27:59;;;;;;;6.78;2.75;;;17.00;99.90;;;;;;5073576;28;20040;-69
2023/09/05 02:30:26;;;;;;;3.63;2.88;;;17.00;99.90;;;;;;5074107;28;20103;-70
2023/09/05 02:32:52;;;;;;;5.97;2.75;;;17.00;99.90;;;;;;5073615;28;20021;-69
2023/09/05 02:35:20;;;;;;;7.78;3.35;;;16.80;99.90;;;;;;5073533;28;20392;-70
2023/09/05 02:37:49;;;;;;;5.63;3.03;;;16.80;99.90;;;;;;5073389;28;20082;-68
2023/09/05 02:40:14;;;;;;;5.03;2.90;;;16.70;99.90;;;;;;5073300;28;20025;-68
2023/09/05 02:42:40;;;;;;;6.28;2.95;;;16.70;99.90;;;;;;5073827;28;20358;-70
2023/09/05 02:45:06;;;;;;;4.25;3.08;;;16.80;99.90;;;;;;5073306;28;20533;-70
2023/09/05 02:47:32;;;;;;;4.35;2.85;;;16.70;99.90;;;;;;5071870;28;20502;-69
2023/09/05 02:49:57;;;;;;;6.05;2.80;;;16.70;99.90;;;;;;5073161;28;20036;-69
2023/09/05 02:52:24;;;;;;;8.05;2.53;;;16.70;99.90;;;;;;5073122;28;20089;-69
2023/09/05 02:54:50;;;;;;;8.65;3.45;;;16.80;99.90;;;;;;5072448;28;20350;-69
2023/09/05 02:57:16;;;;;;;8.85;3.58;;;16.80;99.90;;;;;;5072356;28;20021;-69
2023/09/05 02:59:42;;;;;;;7.38;3.10;;;16.90;99.90;;;;;;5073135;28;20021;-69
2023/09/05 03:02:07;;;;;;;4.75;3.10;;;16.90;99.90;;;;;;5072889;28;20028;-69
2023/09/05 03:04:33;;;;;;;9.38;3.60;;;16.80;99.90;;;;;;5072721;28;20067;-69
2023/09/05 03:07:01;;;;;;;9.90;3.63;;;16.80;99.90;;;;;;5072255;28;20323;-69
2023/09/05 03:09:27;;;;;;;4.68;3.17;;;16.90;99.90;;;;;;5073571;28;20021;-69
2023/09/05 03:11:53;;;;;;;10.50;3.78;;;16.90;99.90;;;;;;5072898;28;20025;-69
2023/09/05 03:14:18;;;;;;;7.88;3.90;;;16.90;99.90;;;;;;5072626;28;20359;-69
2023/09/05 03:16:44;;;;;;;7.95;3.17;;;16.90;99.90;;;;;;5072725;28;20112;-69
2023/09/05 03:19:11;;;;;;;8.63;5.20;;;16.90;99.90;;;;;;5072413;28;20120;-69
2023/09/05 03:21:38;;;;;;;9.32;3.60;;;16.80;99.90;;;;;;5072839;28;20048;-69
2023/09/05 03:24:04;;;;;;;9.75;3.20;;;16.90;99.90;;;;;;5072393;28;20032;-67
2023/09/05 03:26:30;;;;;;;7.63;3.92;;;16.90;99.90;;;;;;5072078;28;20082;-69
2023/09/05 03:28:56;;;;;;;7.82;3.58;;;17.00;99.90;;;;;;5072561;28;20036;-68
2023/09/05 03:31:24;;;;;;;7.43;3.70;;;17.00;99.90;;;;;;5072218;28;20021;-68
2023/09/05 03:33:50;;;;;;;8.27;4.68;;;17.00;99.90;;;;;;5072504;28;20021;-68
2023/09/05 03:36:16;;;;;;;8.40;3.50;;;17.00;99.90;;;;;;5072441;28;20051;-68
2023/09/05 03:38:42;;;;;;;5.82;3.58;;;17.10;99.90;;;;;;5071942;28;20060;-69
2023/09/05 03:41:08;;;;;;;7.13;3.90;;;17.00;99.90;;;;;;5072120;28;20056;-68
2023/09/05 03:43:34;;;;;;;7.07;4.13;;;17.00;99.90;;;;;;5071063;28;20044;-68
2023/09/05 03:46:00;;;;;;;6.10;3.25;;;16.80;99.90;;;;;;5071822;28;20050;-68
2023/09/05 03:48:25;;;;;;;6.97;3.47;;;16.70;99.90;;;;;;5072442;28;20044;-69
2023/09/05 03:50:51;;;;;;;5.18;3.63;;;16.80;99.90;;;;;;5071857;28;20120;-69
2023/09/05 03:53:17;;;;;;;8.07;3.38;;;16.70;99.90;;;;;;5071736;28;20639;-69
2023/09/05 03:55:43;;;;;;;6.80;3.67;;;16.60;99.90;;;;;;5070859;28;20028;-69
2023/09/05 03:58:08;;;;;;;8.77;3.85;;;16.60;99.90;;;;;;5071604;28;20029;-69
2023/09/05 04:00:34;;;;;;;6.60;3.17;;;16.50;99.90;;;;;;5072194;28;20063;-69
2023/09/05 04:03:04;;;;;;;7.45;3.47;;;16.50;99.90;;;;;;5071717;28;20040;-70
2023/09/05 04:05:32;;;;;;;7.55;3.83;;;16.50;99.90;;;;;;5071480;28;20056;-69
2023/09/05 04:07:58;;;;;;;7.95;4.13;;;16.60;99.90;;;;;;5071110;28;20458;-69
2023/09/05 04:10:23;;;;;;;7.03;3.55;;;16.50;99.90;;;;;;5071556;28;20043;-69
2023/09/05 04:12:52;;;;;;;8.95;3.90;;;16.50;99.90;;;;;;5071484;28;20435;-70
2023/09/05 04:15:21;;;;;;;7.28;3.78;;;16.50;99.90;;;;;;5072048;28;20145;-69
2023/09/05 04:17:47;;;;;;;5.90;3.53;;;16.50;99.90;;;;;;5071481;28;20024;-70
2023/09/05 04:20:13;;;;;;;7.55;3.35;;;16.40;99.90;;;;;;5071488;28;20043;-69
2023/09/05 04:22:39;;;;;;;6.97;3.50;;;16.40;99.90;;;;;;5071373;28;20032;-70
2023/09/05 04:25:08;;;;;;;8.20;3.72;;;16.50;99.90;;;;;;5071093;28;20016;-69
2023/09/05 04:27:34;;;;;;;10.93;4.63;;;16.50;99.90;;;;;;5071603;28;20497;-70
2023/09/05 04:30:00;;;;;;;8.15;3.78;;;16.50;99.90;;;;;;5071176;28;20074;-69
2023/09/05 04:32:31;;;;;;;7.88;3.72;;;16.40;99.90;;;;;;5071212;28;20320;-69
2023/09/05 04:34:58;;;;;;;9.32;4.22;;;16.40;99.90;;;;;;5071364;28;20036;-70
2023/09/05 04:37:24;;;;;;;14.07;3.88;;;16.50;99.90;;;;;;5071006;28;20032;-69
2023/09/05 04:39:50;;;;;;;8.80;3.38;;;16.50;99.90;;;;;;5070028;28;20020;-69
2023/09/05 04:42:16;;;;;;;6.22;3.40;;;16.50;99.90;;;;;;5071495;28;20435;-69
2023/09/05 04:44:41;;;;;;;11.25;4.00;;;16.60;99.90;;;;;;5070892;28;20112;-69
2023/09/05 04:47:23;;;;;;;10.13;4.45;;;16.60;99.90;;;;;;5070852;28;20159;-69
2023/09/05 04:49:50;;;;;;;14.93;3.50;;;16.50;99.90;;;;;;5069861;28;20458;-69
2023/09/05 04:52:17;;;;;;;9.05;4.22;;;16.50;99.90;;;;;;5069599;28;20120;-69
2023/09/05 04:54:43;;;;;;;7.78;4.40;;;16.50;99.90;;;;;;5070097;28;20027;-69
2023/09/05 04:57:10;;;;;;;3.80;2.72;;;16.50;99.90;;;;;;5070812;28;20032;-70
2023/09/05 04:59:37;;;;;;;6.93;3.92;;;16.60;99.90;;;;;;5070734;28;20467;-70
2023/09/05 05:02:04;;;;;;;9.70;3.90;;;16.60;99.90;;;;;;5070680;28;20032;-70
2023/09/05 05:04:29;;;;;;;16.25;3.85;;;16.70;99.90;;;;;;5070434;28;20154;-70
2023/09/05 05:06:56;;;;;;;11.75;3.45;;;16.60;99.90;;;;;;5069854;28;20028;-70
2023/09/05 05:09:22;;;;;;;8.00;4.13;;;16.70;99.90;;;;;;5071085;28;20040;-67
2023/09/05 05:11:48;;;;;;;10.32;4.38;;;16.70;99.90;;;;;;5070871;28;20029;-68
2023/09/05 05:14:13;;;;;;;10.63;3.72;;;16.80;99.90;;;;;;5070742;28;20051;-69
2023/09/05 05:16:43;;;;;;;6.10;3.78;;;16.70;99.90;;;;;;5070632;28;20039;-69
2023/09/05 05:19:10;;;;;;;11.65;4.00;;;16.70;99.90;;;;;;5070284;28;20047;-69
2023/09/05 05:21:37;;;;;;;8.85;3.60;;;16.80;99.90;;;;;;5070947;28;20021;-69
2023/09/05 05:24:07;;;;;;;11.77;3.83;;;16.90;99.90;;;;;;5069375;28;20032;-69
2023/09/05 05:26:33;;;;;;;5.57;3.40;;;16.90;99.90;;;;;;5069724;28;20052;-70
2023/09/05 05:28:59;;;;;;;7.68;3.28;;;16.90;99.90;;;;;;5070529;28;20032;-70
2023/09/05 05:31:26;;;;;;;8.93;3.55;;;17.00;99.90;;;;;;5072947;28;20046;-70
2023/09/05 05:33:52;;;;;;;8.15;3.85;;;16.90;99.90;;;;;;5090600;28;20020;-68
2023/09/05 05:36:17;;;;;;;9.77;3.75;;;16.90;99.90;;;;;;5090623;28;20028;-68
2023/09/05 05:38:43;;;;;;;9.82;3.45;;;16.80;99.90;;;;;;5090833;28;20032;-67
2023/09/05 05:41:11;;;;;;;6.10;3.42;;;16.90;99.90;;;;;;5089336;28;20365;-68
2023/09/05 05:43:37;;;;;;;10.80;3.03;;;16.80;99.90;;;;;;5089707;28;20032;-69
2023/09/05 05:46:03;;;;;;;6.63;2.90;;;16.90;99.90;;;;;;5090327;28;20362;-70
2023/09/05 05:48:28;;;;;;;6.85;3.33;;;17.00;99.90;;;;;;5090661;28;20028;-68
2023/09/05 05:50:55;;;;;;;11.13;3.70;;;17.00;99.90;;;;;;5090244;28;20051;-68
2023/09/05 05:53:22;;;;;;;10.70;3.70;;;17.10;99.90;;;;;;5090358;28;20070;-67
2023/09/05 05:55:48;;;;;;;8.10;3.65;;;17.10;99.90;;;;;;5090360;28;20474;-67
2023/09/05 05:58:14;;;;;;;7.32;4.07;;;17.10;99.90;;;;;;5089185;28;20060;-67
2023/09/05 06:00:50;;;;;;;5.40;2.95;;;17.20;99.90;;;;;;5090854;28;20058;-67
2023/09/05 06:03:20;;;;;;;6.95;3.45;;;17.30;99.90;;;;;;5090708;28;20123;-70
2023/09/05 06:05:46;;;;;;;7.65;3.55;;;17.30;99.90;;;;;;5090123;28;20482;-68
2023/09/05 06:08:12;;;;;;;8.73;3.35;;;17.30;99.90;;;;;;5090262;28;20039;-68
2023/09/05 06:10:37;;;;;;;7.93;3.25;;;17.30;99.90;;;;;;5089130;28;20127;-69
2023/09/05 06:13:04;;;;;;;8.32;3.63;;;17.40;99.90;;;;;;5090323;28;20103;-67
2023/09/05 06:15:31;;;;;;;4.30;2.70;;;17.40;99.90;;;;;;5090752;28;20021;-69
2023/09/05 06:17:57;;;;;;;5.93;3.20;;;17.50;99.90;;;;;;5090360;28;20028;-70
2023/09/05 06:20:22;;;;;;;6.75;3.40;;;17.50;99.90;;;;;;5090221;28;20547;-72
2023/09/05 06:22:49;;;;;;;9.20;3.33;;;17.60;99.90;;;;;;5090129;28;20046;-71
2023/09/05 06:25:15;;;;;;;6.43;2.78;;;17.60;99.90;;;;;;5089163;28;20040;-71
2023/09/05 06:27:43;;;;;;;8.68;5.07;;;17.70;99.90;;;;;;5090580;28;20028;-71
2023/09/05 06:30:13;;;;;;;10.48;5.20;;;17.70;99.90;;;;;;5091908;28;20327;-71
2023/09/05 06:32:39;;;;;;;13.13;3.83;;;17.80;99.90;;;;;;5093901;28;20124;-69
2023/09/05 06:35:05;;;;;;;8.50;3.47;;;17.90;99.90;;;;;;5093832;28;20052;-69
2023/09/05 06:37:35;;;;;;;8.00;3.55;;;18.00;99.90;;;;;;5093702;28;20079;-69
2023/09/05 06:40:05;;;;;;;8.60;3.72;;;18.00;99.90;;;;;;5093854;28;20552;-69
2023/09/05 06:42:30;;;;;;;10.07;2.47;;;18.10;99.90;;;;;;5094021;28;20016;-69
2023/09/05 06:44:56;;;;;;;4.55;2.38;;;18.20;99.90;;;;;;5093499;28;20271;-69
2023/09/05 06:47:22;;;;;;;14.05;2.88;;;18.20;99.90;;;;;;5093324;28;20073;-71
2023/09/05 06:49:48;;;;;;;6.07;2.38;;;18.20;99.90;;;;;;5093540;28;20043;-69
2023/09/05 06:52:13;;;;;;;4.85;2.25;;;18.30;99.90;;;;;;5093300;28;20040;-68
2023/09/05 06:54:39;;;;;;;5.93;2.70;;;18.40;99.90;;;;;;5093794;28;20028;-70
2023/09/05 06:57:05;;;;;;;4.38;2.42;;;18.50;99.90;;;;;;5093158;28;20028;-68
2023/09/05 06:59:30;;;;;;;7.40;3.75;;;18.60;99.90;;;;;;5093520;28;20034;-74
2023/09/05 07:01:56;;;;;;;10.10;3.05;;;18.70;99.90;;;;;;5093596;28;20059;-74
2023/09/05 07:04:21;;;;;;;5.13;2.75;;;18.80;99.90;;;;;;5092270;28;20038;-76
2023/09/05 07:06:48;;;;;;;3.85;2.13;;;18.90;99.90;;;;;;5093259;28;20126;-74
2023/09/05 07:09:14;;;;;;;4.03;2.03;;;19.00;99.90;;;;;;5093666;28;20081;-72
2023/09/05 07:11:40;;;;;;;3.75;2.00;;;19.10;99.90;;;;;;5091945;28;20377;-68
2023/09/05 07:14:06;;;;;;;6.60;2.00;;;19.20;99.90;;;;;;5092666;28;20020;-67
2023/09/05 07:16:31;;;;;;;4.05;1.80;;;19.30;99.90;;;;;;5091837;28;20028;-68
2023/09/05 07:18:57;;;;;;;5.13;1.83;;;19.40;99.90;;;;;;5072705;28;20029;-69
2023/09/05 07:21:23;;;;;;;5.20;2.00;;;19.40;99.90;;;;;;5073256;28;20087;-68
2023/09/05 07:23:48;;;;;;;2.40;1.70;;;19.50;99.90;;;;;;5072539;28;20029;-69
2023/09/05 07:26:14;;;;;;;3.40;1.60;;;19.60;99.90;;;;;;5072543;28;20032;-69
2023/09/05 07:28:40;;;;;;;5.18;1.70;;;19.70;99.90;;;;;;5072306;28;20116;-69
2023/09/05 07:31:06;;;;;;;7.18;1.83;;;19.80;99.90;;;;;;5072486;28;20123;-72
2023/09/05 07:33:33;;;;;;;8.80;2.45;;;19.90;99.90;;;;;;5072779;28;20084;-70
2023/09/05 07:35:59;;;;;;;5.13;1.73;;;20.00;99.60;;;;;;5072428;28;20097;-69
2023/09/05 07:38:24;;;;;;;5.70;2.20;;;20.00;99.30;;;;;;5072830;28;20041;-70
2023/09/05 07:41:04;;;;;;;5.70;2.00;;;20.10;99.50;;;;;;5072057;28;20040;-69
2023/09/05 07:43:30;;;;;;;3.17;1.52;;;20.20;99.70;;;;;;5072420;28;20028;-70
2023/09/05 07:45:56;;;;;;;8.75;2.28;;;20.30;99.90;;;;;;5072030;28;20016;-72
2023/09/05 07:48:21;;;;;;;5.22;2.05;;;20.30;99.90;;;;;;5072762;28;20356;-73
2023/09/05 07:50:47;;;;;;;7.88;4.47;;;20.40;99.60;;;;;;5072261;28;20024;-72
2023/09/05 07:53:13;;;;;;;3.22;2.58;;;20.50;99.40;;;;;;5071990;28;20044;-72
2023/09/05 07:55:39;;;;;;;9.43;2.00;;;20.60;99.40;;;;;;5072086;28;20051;-73
2023/09/05 07:58:04;;;;;;;7.88;1.63;;;20.60;99.50;;;;;;5072076;28;20012;-73
2023/09/05 08:00:30;;;;;;;5.45;2.00;;;20.70;99.60;;;;;;5072355;28;20104;-73
2023/09/05 08:02:57;;;;;;;7.82;2.00;;;20.80;99.50;;;;;;5071992;28;20028;-70
2023/09/05 08:05:23;;;;;;;4.20;1.60;;;20.90;99.00;;;;;;5071736;28;20480;-72
2023/09/05 08:07:48;;;;;;;3.47;1.80;;;21.00;99.10;;;;;;5071499;28;20178;-71
2023/09/05 08:10:14;;;;;;;2.72;1.73;;;21.10;98.70;;;;;;5071660;28;20044;-70
2023/09/05 08:12:39;;;;;;;4.32;1.73;;;21.20;98.60;;;;;;5072113;28;20028;-70
2023/09/05 08:15:05;;;;;;;3.63;1.50;;;21.30;98.50;;;;;;5071934;28;20028;-70
2023/09/05 08:17:32;;;;;;;3.05;1.98;;;21.50;98.50;;;;;;5070295;28;20370;-71
2023/09/05 08:19:58;;;;;;;12.82;7.18;;;21.70;98.10;;;;;;5070312;28;20033;-68
2023/09/05 08:22:24;;;;;;;4.50;2.30;;;22.00;98.00;;;;;;5071449;28;20036;-67
2023/09/05 08:24:51;;;;;;;3.70;1.95;;;22.20;98.00;;;;;;5071166;28;20103;-70
2023/09/05 08:27:19;;;;;;;2.00;1.65;;;22.60;97.30;;;;;;5071713;28;20453;-69
2023/09/05 08:29:44;;;;;;;6.45;1.58;;;23.90;97.00;;;;;;5071325;28;20115;-71
2023/09/05 08:32:11;;;;;;;3.60;1.50;;;25.30;94.80;;;;;;5071144;28;20111;-71
2023/09/05 08:34:40;;;;;;;4.68;1.60;;;26.50;93.10;;;;;;5071243;28;20028;-71
2023/09/05 08:37:06;;;;;;;6.03;1.70;;;27.80;91.90;;;;;;5070919;28;25758;-71
2023/09/05 08:39:32;;;;;;;2.78;1.80;;;29.00;90.20;;;;;;5071649;28;20112;-71
2023/09/05 08:42:00;;;;;;;4.68;1.65;;;30.10;88.10;;;;;;5071390;28;20120;-71
2023/09/05 08:44:26;;;;;;;2.92;1.90;;;30.80;82.90;;;;;;5071344;28;20520;-71
2023/09/05 08:46:54;;;;;;;5.57;1.88;;;31.40;78.20;;;;;;5071267;28;20123;-72
2023/09/05 08:49:20;;;;;;;9.73;1.58;;;32.30;79.10;;;;;;5070860;28;20424;-71
2023/09/05 08:51:52;;;;;;;2.03;1.50;;;33.20;76.60;;;;;;5070114;28;20126;-70
2023/09/05 08:54:18;;;;;;;3.17;1.75;;;34.00;72.00;;;;;;5070752;28;20047;-70
2023/09/05 08:56:44;;;;;;;5.00;1.30;;;34.90;72.10;;;;;;5070753;28;20402;-72
2023/09/05 08:59:10;;;;;;;4.05;1.77;;;35.20;66.60;;;;;;5070856;28;20117;-70
2023/09/05 09:01:38;;;;;;;2.35;1.63;;;36.00;63.70;;;;;;5070737;28;20039;-71
2023/09/05 09:04:03;;;;;;;;;;;36.30;63.90;;;;;;5071023;28;20028;-70
2023/09/05 09:06:29;;;;;;;3.63;2.00;;;36.80;62.40;;;;;;5070955;28;19927;-69
2023/09/05 09:08:55;;;;;;;3.50;1.42;;;36.90;59.40;;;;;;5070850;28;20124;-71
2023/09/05 09:11:22;;;;;;;2.42;1.50;;;37.60;59.10;;;;;;5070781;28;20024;-71
2023/09/05 09:13:52;;;;;;;3.33;1.77;;;38.20;60.40;;;;;;5070705;28;20474;-70
2023/09/05 09:16:18;;;;;;;3.47;1.67;;;38.10;56.10;;;;;;5070679;28;20033;-70
2023/09/05 09:18:48;;;;;;;2.95;2.08;;;38.30;58.10;;;;;;5071133;28;20389;-71
2023/09/05 09:21:20;;;;;;;3.42;2.00;;;38.30;55.40;;;;;;5069630;28;20028;-72
2023/09/05 09:23:45;;;;;;;7.53;1.80;;;38.70;55.10;;;;;;5070357;28;20039;-71
2023/09/05 09:26:13;;;;;;;5.05;1.55;;;38.70;53.20;;;;;;5069328;28;20370;-73
2023/09/05 09:28:39;;;;;;;3.75;1.80;;;39.20;52.60;;;;;;5070282;28;20131;-71
2023/09/05 09:31:11;;;;;;;2.88;1.60;;;39.60;51.60;;;;;;5070560;28;20038;-71
2023/09/05 09:33:37;;;;;;;1.52;1.38;;;39.60;50.10;;;;;;5071190;28;20013;-70
2023/09/05 09:36:08;;;;;;;1.58;1.38;;;39.50;48.30;;;;;;5069175;28;20118;-70
2023/09/05 09:38:34;;;;;;;3.50;1.38;;;40.20;49.80;;;;;;5070156;28;20124;-70
2023/09/05 09:41:02;;;;;;;4.80;1.60;;;40.30;48.30;;;;;;5070427;28;20423;-69
2023/09/05 09:43:29;;;;;;;3.03;1.65;;;40.60;47.20;;;;;;5070295;28;20040;-70
2023/09/05 09:46:00;;;;;;;3.88;1.67;;;40.80;47.30;;;;;;5069357;28;20116;-69
2023/09/05 09:48:27;;;;;;;2.45;1.30;;;40.40;45.90;;;;;;5070898;28;20032;-70
2023/09/05 09:50:57;;;;;;;2.47;1.90;;;40.70;46.30;;;;;;5069139;28;20028;-70
2023/09/05 09:53:45;;;;;;;2.05;1.48;;;41.30;44.60;;;;;;5070218;28;20103;-69
2023/09/05 09:56:12;;;;;;;6.03;1.60;;;41.50;44.10;;;;;;5069939;28;20059;-71
2023/09/05 09:58:44;;;;;;;1.23;1.13;;;41.20;43.40;;;;;;5070430;28;20385;-72
2023/09/05 10:01:13;;;;;;;2.58;1.60;;;41.20;43.70;;;;;;5070161;28;20476;-70
2023/09/05 10:03:42;;;;;;;1.35;1.25;;;40.80;43.70;;;;;;5070494;28;20367;-71
2023/09/05 10:06:10;;;;;;;2.00;1.40;;;40.80;43.80;;;;;;5071700;28;20514;-69
2023/09/05 10:08:37;;;;;;;1.50;1.40;;;40.90;43.60;;;;;;5074042;28;20396;-70
2023/09/05 10:11:03;;;;;;;;;;;41.30;44.50;;;;;;5074641;28;20033;-69
2023/09/05 10:13:33;;;;;;;2.63;1.33;;;41.40;43.80;;;;;;5073966;28;19913;-69
2023/09/05 10:16:01;;;;;;;3.17;1.45;;;41.40;43.30;;;;;;5073712;28;20461;-71
2023/09/05 10:18:31;;;;;;;1.75;1.13;;;41.20;43.60;;;;;;5074086;28;20085;-69
2023/09/05 10:21:00;;;;;;;2.00;1.40;;;42.00;43.70;;;;;;5073758;28;20028;-70
2023/09/05 10:23:30;;;;;;;3.15;1.92;;;42.70;41.40;;;;;;5073757;28;20351;-71
2023/09/05 10:25:58;;;;;;;2.65;1.25;;;42.60;42.50;;;;;;5073478;28;20029;-70
2023/09/05 10:28:29;;;;;;;1.27;1.05;;;41.70;40.80;;;;;;5073832;28;20145;-70
2023/09/05 10:31:12;;;;;;;5.85;1.20;;;41.70;40.30;;;;;;5073930;28;20028;-75
2023/09/05 10:33:38;;;;;;;1.50;1.13;;;41.40;40.70;;;;;;5072997;28;20031;-71
2023/09/05 10:36:06;;;;;;;5.72;1.40;;;41.30;40.90;;;;;;5073521;28;20032;-71
2023/09/05 10:38:38;;;;;;;3.10;1.25;;;41.40;40.30;;;;;;5072419;28;20055;-72
2023/09/05 10:41:03;;;;;;;1.45;1.00;;;41.60;40.80;;;;;;5073639;28;20472;-73
2023/09/05 10:43:29;;;;;;;2.90;1.30;;;41.70;41.10;;;;;;5072512;28;20123;-73
2023/09/05 10:45:58;;;;;;;1.88;1.20;;;42.40;39.80;;;;;;5073239;28;20040;-73
2023/09/05 10:48:37;;;;;;;1.48;1.27;;;42.80;39.20;;;;;;5073620;28;20525;-74
2023/09/05 10:51:12;;;;;;;3.10;1.30;;;42.50;39.60;;;;;;5072254;28;20089;-72
2023/09/05 10:53:41;;;;;;;1.48;1.20;;;42.30;39.20;;;;;;5073255;28;20028;-73
2023/09/05 10:56:36;;;;;;;1.42;0.85;;;42.10;39.20;;;;;;5072156;28;20367;-69
2023/09/05 10:59:02;;;;;;;2.65;1.00;;;42.30;38.90;;;;;;5073178;28;20079;-72
2023/09/05 11:01:31;;;;;;;1.75;1.00;;;41.70;39.70;;;;;;5073718;28;20063;-71
2023/09/05 11:04:00;;;;;;;2.03;1.27;;;41.10;38.90;;;;;;5072882;28;20020;-70
2023/09/05 11:06:25;;;;;;;1.63;1.10;;;41.10;38.90;;;;;;5073145;28;20056;-71
2023/09/05 11:08:59;;;;;;;2.30;1.10;;;41.40;40.10;;;;;;5072897;28;20028;-70
2023/09/05 11:11:24;;;;;;;1.23;0.95;;;41.30;40.00;;;;;;5071711;28;20031;-70
2023/09/05 11:13:50;;;;;;;1.95;1.17;;;40.70;39.20;;;;;;5072863;28;20036;-72
2023/09/05 11:16:16;;;;;;;1.67;0.95;;;40.40;40.00;;;;;;5072147;28;20508;-70
2023/09/05 11:18:54;;;;;;;4.40;1.17;;;40.60;40.10;;;;;;5073093;28;20021;-71
2023/09/05 11:21:22;;;;;;;2.53;1.13;;;39.70;40.20;;;;;;5072887;28;20036;-70
2023/09/05 11:23:52;;;;;;;1.20;1.10;;;39.60;40.90;;;;;;5072520;28;20052;-70
2023/09/05 11:26:19;;;;;;;1.10;0.95;;;38.90;40.80;;;;;;5071290;28;20067;-69
2023/09/05 11:28:48;;;;;;;1.65;1.10;;;38.20;41.90;;;;;;5072530;28;20044;-74
2023/09/05 11:31:15;;;;;;;1.10;0.80;;;37.40;43.40;;;;;;5072669;28;20033;-72
2023/09/05 11:33:41;;;;;;;2.85;0.90;;;36.30;44.30;;;;;;5071777;28;20016;-72
2023/09/05 11:36:07;;;;;;;2.38;0.80;;;35.80;44.80;;;;;;5071189;28;20401;-70
2023/09/05 11:38:47;;;;;;;1.43;1.10;;;35.60;45.30;;;;;;5072362;28;20036;-72
2023/09/05 11:41:13;;;;;;;0.90;0.75;;;35.30;45.60;;;;;;5072631;28;20024;-72
2023/09/05 11:43:54;;;;;;;1.75;1.23;;;34.80;46.10;;;;;;5072220;28;20036;-73
2023/09/05 11:46:22;;;;;;;1.10;0.80;;;34.70;46.70;;;;;;5071846;28;20123;-73
2023/09/05 11:48:49;;;;;;;1.02;0.73;;;34.40;47.00;;;;;;5072309;28;20153;-73
2023/09/05 11:51:16;;;;;;;1.45;1.00;;;34.20;47.70;;;;;;5072789;28;20052;-74
2023/09/05 11:53:46;;;;;;;2.50;0.95;;;33.90;47.80;;;;;;5071963;28;20025;-73
2023/09/05 11:56:12;;;;;;;1.08;0.90;;;33.70;49.00;;;;;;5071969;28;20040;-73
2023/09/05 11:58:38;;;;;;;0.80;0.70;;;33.30;48.70;;;;;;5070694;28;20382;-69
2023/09/05 12:01:04;;;;;;;0.82;0.70;;;33.10;49.10;;;;;;5070965;28;20028;-70
2023/09/05 12:03:35;;;;;;;1.08;0.90;;;33.00;49.00;;;;;;5072211;28;20028;-69
2023/09/05 12:06:02;;;;;;;2.63;1.65;;;32.80;49.90;;;;;;5071515;28;20051;-73
2023/09/05 12:08:27;;;;;;;3.45;1.23;;;32.70;49.80;;;;;;5071763;28;20021;-74
2023/09/05 12:10:55;;;;;;;2.47;1.10;;;32.60;49.90;;;;;;5071749;28;20036;-72
2023/09/05 12:13:38;;;;;;;1.48;0.93;;;32.50;50.60;;;;;;5071743;28;20115;-72
2023/09/05 12:16:07;;;;;;;1.80;0.90;;;32.30;51.00;;;;;;5071837;28;20052;-72
2023/09/05 12:18:33;;;;;;;4.78;1.20;;;32.30;50.60;;;;;;5071815;28;20085;-74
2023/09/05 12:21:02;;;;;;;2.70;0.80;;;32.10;51.20;;;;;;5071535;28;20378;-75
2023/09/05 12:23:28;;;;;;;2.00;1.20;;;32.00;51.40;;;;;;5071431;28;20032;-74
2023/09/05 12:25:57;;;;;;;1.80;1.00;;;31.90;51.20;;;;;;5071463;28;20144;-74
2023/09/05 12:28:25;;;;;;;3.17;0.95;;;31.80;52.20;;;;;;5069520;28;20469;-75
2023/09/05 12:30:53;;;;;;;1.83;0.70;;;31.70;52.40;;;;;;5070307;28;20028;-69
2023/09/05 12:33:20;;;;;;;0.90;0.85;;;31.60;52.10;;;;;;5071872;28;20033;-71
2023/09/05 12:35:46;;;;;;;1.50;0.80;;;31.60;52.40;;;;;;5070298;28;20458;-72
2023/09/05 12:38:14;;;;;;;0.93;0.80;;;31.50;52.50;;;;;;5071226;28;20102;-74
2023/09/05 12:40:40;;;;;;;1.13;0.98;;;31.40;52.40;;;;;;5070030;28;20147;-72
2023/09/05 12:43:06;;;;;;;2.53;0.80;;;31.30;52.30;;;;;;5071062;28;20438;-72
2023/09/05 12:45:32;;;;;;;4.85;1.20;;;31.30;53.10;;;;;;5071353;28;20085;-71
2023/09/05 12:47:59;;;;;;;4.38;0.90;;;31.30;53.40;;;;;;5070923;28;20466;-72